Time;durP1;ratioP1;P1;durP2;ratioP2;P2;SDS_P1;SDS_P2;PMS_P1;PMS_P2;Temp;Humidity;BMP_temperature;BMP_pressure;BME280_temperature;BME280_humidity;BME280_pressure;Samples;Min_cycle;Max_cycle;Signal;HPM_P1;HPM_P2
2022/10/08 00:01:31;;;;;;;13.57;6.90;;;12.30;99.90;;;;;;5034046;28;20437;-49
2022/10/08 00:03:57;;;;;;;7.07;6.20;;;12.60;99.90;;;;;;5034160;28;20522;-50
2022/10/08 00:06:26;;;;;;;10.13;7.10;;;12.20;99.90;;;;;;5034000;28;20482;-49
2022/10/08 00:08:55;;;;;;;10.10;6.40;;;12.30;99.90;;;;;;5033621;28;20456;-49
2022/10/08 00:11:25;;;;;;;9.83;7.00;;;12.30;99.90;;;;;;5033898;28;20817;-49
2022/10/08 00:13:54;;;;;;;11.10;8.10;;;12.40;99.90;;;;;;5034138;28;20922;-49
2022/10/08 00:16:23;;;;;;;10.43;6.40;;;12.30;99.90;;;;;;5033679;28;20445;-48
2022/10/08 00:18:51;;;;;;;12.00;7.70;;;12.50;99.90;;;;;;5033493;28;20433;-49
2022/10/08 00:21:20;;;;;;;13.53;7.40;;;12.30;99.90;;;;;;5033923;28;20447;-49
2022/10/08 00:23:48;;;;;;;10.93;8.17;;;12.30;99.90;;;;;;5033955;28;20457;-48
2022/10/08 00:26:16;;;;;;;9.87;7.13;;;12.20;99.90;;;;;;5033989;28;20480;-49
2022/10/08 00:28:46;;;;;;;10.00;7.60;;;12.20;99.90;;;;;;5033577;28;20545;-49
2022/10/08 00:31:15;;;;;;;10.73;6.83;;;12.10;99.90;;;;;;5033835;28;20464;-49
2022/10/08 00:33:41;;;;;;;16.43;7.70;;;12.50;99.90;;;;;;5033575;28;20460;-50
2022/10/08 00:36:11;;;;;;;11.07;7.40;;;12.60;99.90;;;;;;5033273;28;20431;-49
2022/10/08 00:38:38;;;;;;;12.67;7.67;;;12.20;99.90;;;;;;5033168;28;20429;-49
2022/10/08 00:41:07;;;;;;;13.17;8.23;;;12.20;99.90;;;;;;5033581;28;20440;-49
2022/10/08 00:43:41;;;;;;;11.80;8.17;;;11.80;99.90;;;;;;5033356;28;20470;-49
2022/10/08 00:46:22;;;;;;;11.90;7.47;;;12.30;99.90;;;;;;5033362;28;20496;-49
2022/10/08 00:48:50;;;;;;;11.00;8.70;;;12.30;99.90;;;;;;5033248;28;20506;-49
2022/10/08 00:51:18;;;;;;;9.63;7.30;;;12.10;99.90;;;;;;5033331;28;20433;-48
2022/10/08 00:53:45;;;;;;;10.47;7.30;;;12.00;99.90;;;;;;5033277;28;20966;-50
2022/10/08 00:56:11;;;;;;;10.27;6.97;;;12.20;99.90;;;;;;5033283;28;20941;-49
2022/10/08 00:58:40;;;;;;;12.37;7.43;;;12.20;99.90;;;;;;5032781;28;20897;-49
2022/10/08 01:01:07;;;;;;;10.17;8.27;;;12.00;99.90;;;;;;5015139;28;20565;-49
2022/10/08 01:03:35;;;;;;;14.17;8.27;;;12.10;99.90;;;;;;5034256;28;20980;-50
2022/10/08 01:06:10;;;;;;;13.67;8.50;;;12.00;99.90;;;;;;5033472;28;20572;-50
2022/10/08 01:08:45;;;;;;;10.50;8.10;;;12.10;99.90;;;;;;5032535;28;20430;-50
2022/10/08 01:11:23;;;;;;;11.60;7.57;;;12.30;99.90;;;;;;5033003;28;20440;-50
2022/10/08 01:14:01;;;;;;;16.17;9.00;;;12.40;99.90;;;;;;5033126;28;20443;-50
2022/10/08 01:16:34;;;;;;;10.13;8.60;;;12.20;99.90;;;;;;5032909;28;20436;-49
2022/10/08 01:19:15;;;;;;;11.00;8.23;;;12.00;99.90;;;;;;5032500;28;20802;-50
2022/10/08 01:21:53;;;;;;;13.67;7.40;;;12.50;99.90;;;;;;5032826;28;20437;-50
2022/10/08 01:27:28;;;;;;;11.33;7.80;;;11.90;99.90;;;;;;5031687;28;20811;-49
2022/10/08 01:29:56;;;;;;;10.90;7.50;;;11.60;99.90;;;;;;5032303;28;20938;-49
2022/10/08 01:32:36;;;;;;;11.47;7.33;;;12.10;99.90;;;;;;5032366;28;20833;-49
2022/10/08 01:35:08;;;;;;;11.57;6.83;;;12.20;99.90;;;;;;5032745;28;20565;-49
2022/10/08 01:37:38;;;;;;;12.90;8.37;;;12.40;99.90;;;;;;5032530;28;20451;-48
2022/10/08 01:40:11;;;;;;;9.60;6.50;;;12.20;99.90;;;;;;5032209;28;20447;-48
2022/10/08 01:42:41;;;;;;;10.50;9.30;;;12.20;99.90;;;;;;5032351;28;20460;-49
2022/10/08 01:45:12;;;;;;;10.97;7.93;;;12.10;99.90;;;;;;5032245;28;20444;-49
2022/10/08 01:47:40;;;;;;;18.13;8.17;;;12.50;99.90;;;;;;5031422;28;20479;-49
2022/10/08 01:50:12;;;;;;;12.93;8.20;;;12.30;99.90;;;;;;5031656;28;20924;-49
2022/10/08 01:52:44;;;;;;;12.37;7.27;;;11.80;99.90;;;;;;5032067;28;20485;-49
2022/10/08 01:55:16;;;;;;;7.73;6.70;;;12.40;99.90;;;;;;5032174;28;20526;-49
2022/10/08 01:57:44;;;;;;;12.23;7.37;;;12.30;99.90;;;;;;5032245;28;20477;-49
2022/10/08 02:00:14;;;;;;;12.23;7.50;;;12.50;99.90;;;;;;5013724;28;20980;-48
2022/10/08 02:02:42;;;;;;;16.23;11.07;;;12.20;99.90;;;;;;5032271;28;20469;-48
2022/10/08 02:05:11;;;;;;;10.70;8.90;;;12.40;99.90;;;;;;5031872;28;20430;-49
2022/10/08 02:07:41;;;;;;;16.40;8.47;;;12.60;99.90;;;;;;5031965;28;20480;-48
2022/10/08 02:10:11;;;;;;;10.77;7.97;;;12.30;99.90;;;;;;5031530;28;20465;-49
2022/10/08 02:12:38;;;;;;;11.03;7.53;;;12.30;99.90;;;;;;5031668;28;20522;-49
2022/10/08 02:15:11;;;;;;;11.67;7.50;;;12.40;99.90;;;;;;5031599;28;20883;-49
2022/10/08 02:17:45;;;;;;;9.80;7.63;;;12.20;99.90;;;;;;5031619;28;20805;-49
2022/10/08 02:20:17;;;;;;;9.27;7.67;;;12.30;99.90;;;;;;5031234;28;21034;-49
2022/10/08 02:22:52;;;;;;;13.80;7.60;;;12.30;99.90;;;;;;5031553;28;20460;-49
2022/10/08 02:25:26;;;;;;;9.90;7.37;;;12.10;99.90;;;;;;5031705;28;20440;-48
2022/10/08 02:28:03;;;;;;;10.77;8.47;;;12.00;99.90;;;;;;5031589;28;20486;-50
2022/10/08 02:30:37;;;;;;;13.50;8.77;;;12.10;99.90;;;;;;5031207;28;20437;-48
2022/10/08 02:33:09;;;;;;;12.10;8.10;;;11.90;99.90;;;;;;5031119;28;20487;-49
2022/10/08 02:35:40;;;;;;;15.83;7.23;;;12.30;99.90;;;;;;5031476;28;20825;-49
2022/10/08 02:38:13;;;;;;;10.03;7.33;;;12.10;99.90;;;;;;5031576;28;20440;-49
2022/10/08 02:40:44;;;;;;;10.77;7.40;;;12.20;99.90;;;;;;5031628;28;20441;-48
2022/10/08 02:43:15;;;;;;;10.30;7.83;;;12.40;99.90;;;;;;5031482;28;20485;-48
2022/10/08 02:45:46;;;;;;;11.93;7.30;;;12.30;99.90;;;;;;5031196;28;20796;-50
2022/10/08 02:48:17;;;;;;;13.20;7.87;;;12.20;99.90;;;;;;5031454;28;20669;-49
2022/10/08 02:50:47;;;;;;;13.67;7.43;;;12.60;99.90;;;;;;5031039;28;20429;-49
2022/10/08 02:53:17;;;;;;;9.63;7.43;;;12.50;99.90;;;;;;5031010;28;20469;-49
2022/10/08 02:55:50;;;;;;;10.33;7.90;;;12.10;99.90;;;;;;5031178;28;20925;-49
2022/10/08 02:58:17;;;;;;;13.83;8.40;;;12.30;99.90;;;;;;5031263;28;20428;-48
2022/10/08 03:00:52;;;;;;;9.53;7.60;;;12.20;99.90;;;;;;5030541;28;20426;-49
2022/10/08 03:03:23;;;;;;;9.23;7.63;;;12.40;99.90;;;;;;5031015;28;20458;-49
2022/10/08 03:05:51;;;;;;;9.17;7.00;;;12.20;99.90;;;;;;5031446;28;20433;-49
2022/10/08 03:08:19;;;;;;;10.30;7.07;;;11.70;99.90;;;;;;5030678;28;20532;-50
2022/10/08 03:10:47;;;;;;;12.23;7.67;;;12.30;99.90;;;;;;5030572;28;20435;-49
2022/10/08 03:13:14;;;;;;;16.57;8.00;;;12.70;99.90;;;;;;5030779;28;20531;-48
2022/10/08 03:15:43;;;;;;;12.40;8.53;;;12.20;99.90;;;;;;5031036;28;20474;-50
2022/10/08 03:18:12;;;;;;;10.10;7.17;;;12.10;99.90;;;;;;5031123;28;20446;-50
2022/10/08 03:20:43;;;;;;;10.80;8.23;;;12.10;99.90;;;;;;5030980;28;20436;-49
2022/10/08 03:23:11;;;;;;;13.13;7.90;;;12.10;99.90;;;;;;5030936;28;20518;-49
2022/10/08 03:25:38;;;;;;;9.90;7.17;;;12.50;99.90;;;;;;5030865;28;20798;-50
2022/10/08 03:28:04;;;;;;;9.10;7.37;;;12.40;99.90;;;;;;5030638;28;20827;-48
2022/10/08 03:30:31;;;;;;;10.93;7.73;;;12.10;99.90;;;;;;5030335;28;20456;-50
2022/10/08 03:32:57;;;;;;;9.37;7.23;;;12.10;99.90;;;;;;5030620;28;20469;-50
2022/10/08 03:35:25;;;;;;;12.47;7.67;;;12.60;99.90;;;;;;5030733;28;20469;-49
2022/10/08 03:37:53;;;;;;;11.13;6.83;;;12.00;99.90;;;;;;5030887;28;20772;-49
2022/10/08 03:40:20;;;;;;;10.27;7.40;;;12.60;99.90;;;;;;5030269;28;20433;-49
2022/10/08 03:42:46;;;;;;;9.10;6.97;;;12.20;99.90;;;;;;5030674;28;20511;-49
2022/10/08 03:45:13;;;;;;;9.73;7.50;;;11.90;99.90;;;;;;5030894;28;20442;-50
2022/10/08 03:47:40;;;;;;;11.10;8.00;;;12.60;99.90;;;;;;5030567;28;20488;-50
2022/10/08 03:50:07;;;;;;;9.53;7.10;;;12.60;99.90;;;;;;5012980;28;20566;-50
2022/10/08 03:52:35;;;;;;;12.60;7.57;;;12.50;99.90;;;;;;5030598;28;21031;-49
2022/10/08 03:55:02;;;;;;;9.67;7.10;;;12.20;99.90;;;;;;5030647;28;20786;-50
2022/10/08 03:57:28;;;;;;;7.67;6.87;;;12.10;99.90;;;;;;5030655;28;20434;-50
2022/10/08 03:59:55;;;;;;;8.07;7.07;;;12.20;99.90;;;;;;5030274;28;20440;-50
2022/10/08 04:02:21;;;;;;;11.43;7.30;;;12.20;99.90;;;;;;5030663;28;20461;-50
2022/10/08 04:04:48;;;;;;;11.53;7.40;;;12.00;99.90;;;;;;5030572;28;20537;-50
2022/10/08 04:07:15;;;;;;;10.30;6.73;;;12.40;99.90;;;;;;5030498;28;20473;-50
2022/10/08 04:09:43;;;;;;;14.00;7.23;;;12.50;99.90;;;;;;5030213;28;20544;-50
2022/10/08 04:12:09;;;;;;;11.53;6.70;;;12.40;99.90;;;;;;5032927;28;20469;-50
2022/10/08 04:14:36;;;;;;;10.53;5.90;;;12.30;99.90;;;;;;5033986;28;20442;-50
2022/10/08 04:17:02;;;;;;;8.30;5.60;;;11.70;99.90;;;;;;5034044;28;20467;-50
2022/10/08 04:19:29;;;;;;;6.50;5.90;;;12.30;99.90;;;;;;5033613;28;20830;-50
2022/10/08 04:21:55;;;;;;;11.10;7.23;;;12.80;99.90;;;;;;5015940;28;20472;-50
2022/10/08 04:24:22;;;;;;;8.80;5.43;;;12.30;99.90;;;;;;5033849;28;20787;-49
2022/10/08 04:26:50;;;;;;;13.20;7.67;;;12.30;99.90;;;;;;5015878;28;20444;-50
2022/10/08 04:29:17;;;;;;;11.90;7.13;;;12.20;99.90;;;;;;5033551;28;20436;-50
2022/10/08 04:31:43;;;;;;;9.33;6.80;;;12.90;99.90;;;;;;5033707;28;20775;-49
2022/10/08 04:34:10;;;;;;;8.37;6.73;;;12.90;99.90;;;;;;5034297;28;20454;-50
2022/10/08 04:36:36;;;;;;;12.90;7.60;;;12.50;99.90;;;;;;5033597;28;20960;-50
2022/10/08 04:39:03;;;;;;;11.30;7.17;;;12.70;99.90;;;;;;5033255;28;20803;-50
2022/10/08 04:41:30;;;;;;;10.73;5.50;;;12.60;99.90;;;;;;5033790;28;20436;-50
2022/10/08 04:44:00;;;;;;;9.30;6.70;;;12.30;99.90;;;;;;5033437;28;20443;-50
2022/10/08 04:46:27;;;;;;;13.40;7.10;;;12.20;99.90;;;;;;5033397;28;20475;-49
2022/10/08 04:48:55;;;;;;;12.23;6.83;;;12.00;99.90;;;;;;5015277;28;20469;-50
2022/10/08 04:51:24;;;;;;;12.00;6.87;;;12.40;99.90;;;;;;5015552;28;20445;-50
2022/10/08 04:53:51;;;;;;;12.80;6.10;;;12.30;99.90;;;;;;5033541;28;20475;-49
2022/10/08 04:56:20;;;;;;;8.20;5.40;;;12.00;99.90;;;;;;5033434;28;20797;-50
2022/10/08 04:58:48;;;;;;;8.47;6.10;;;12.60;99.90;;;;;;5015067;28;20846;-50
2022/10/08 05:01:19;;;;;;;7.63;6.03;;;11.60;99.90;;;;;;5033309;28;20429;-50
2022/10/08 05:03:48;;;;;;;11.30;7.57;;;12.10;99.90;;;;;;5033050;28;20475;-50
2022/10/08 05:06:15;;;;;;;7.93;6.90;;;12.00;99.90;;;;;;5033110;28;20434;-50
2022/10/08 05:08:42;;;;;;;15.07;8.10;;;12.20;99.90;;;;;;5032647;28;20482;-50
2022/10/08 05:11:09;;;;;;;9.37;6.67;;;11.70;99.90;;;;;;5033145;28;20435;-50
2022/10/08 05:13:36;;;;;;;12.70;6.90;;;11.80;99.90;;;;;;5032979;28;20472;-50
2022/10/08 05:16:04;;;;;;;7.87;6.20;;;12.20;99.90;;;;;;5033063;28;20437;-50
2022/10/08 05:18:33;;;;;;;13.33;7.77;;;11.30;99.90;;;;;;5032626;28;20429;-50
2022/10/08 05:21:02;;;;;;;10.77;6.57;;;12.00;99.90;;;;;;5032713;28;20781;-50
2022/10/08 05:23:29;;;;;;;7.93;6.33;;;11.80;99.90;;;;;;5031613;28;20452;-49
2022/10/08 05:25:55;;;;;;;10.00;5.40;;;11.80;99.90;;;;;;5032779;28;20947;-49
2022/10/08 05:28:22;;;;;;;9.67;7.20;;;11.80;99.90;;;;;;5032606;28;20473;-49
2022/10/08 05:30:49;;;;;;;7.87;6.00;;;11.90;99.90;;;;;;5032325;28;20798;-49
2022/10/08 05:33:15;;;;;;;7.90;6.60;;;11.90;99.90;;;;;;5032923;28;20478;-48
2022/10/08 05:35:43;;;;;;;14.17;7.30;;;12.10;99.90;;;;;;5032886;28;20447;-50
2022/10/08 05:38:10;;;;;;;8.30;7.00;;;12.00;99.90;;;;;;5032911;28;20438;-48
2022/10/08 05:40:36;;;;;;;9.37;7.20;;;12.20;99.90;;;;;;5032336;28;20518;-48
2022/10/08 05:43:03;;;;;;;9.20;6.93;;;12.10;99.90;;;;;;5032299;28;20457;-50
2022/10/08 05:45:29;;;;;;;7.37;6.20;;;11.60;99.90;;;;;;5032276;28;20501;-49
2022/10/08 05:47:56;;;;;;;13.10;7.67;;;11.90;99.90;;;;;;5014476;28;20486;-49
2022/10/08 05:50:22;;;;;;;6.60;5.90;;;11.50;99.90;;;;;;5032022;28;20926;-49
2022/10/08 05:52:50;;;;;;;14.30;10.80;;;11.60;99.90;;;;;;5032335;28;20451;-49
2022/10/08 05:55:17;;;;;;;12.43;9.03;;;11.90;99.90;;;;;;5032141;28;20445;-49
2022/10/08 05:57:44;;;;;;;11.43;8.17;;;11.90;99.90;;;;;;5032132;28;20834;-49
2022/10/08 06:00:12;;;;;;;10.37;6.77;;;11.70;99.90;;;;;;5031714;28;20437;-49
2022/10/08 06:02:38;;;;;;;13.10;8.37;;;11.90;99.90;;;;;;5014231;28;20472;-49
2022/10/08 06:05:05;;;;;;;11.33;6.70;;;11.40;99.90;;;;;;5031905;28;20432;-49
2022/10/08 06:07:32;;;;;;;15.23;8.33;;;11.90;99.90;;;;;;5031955;28;20499;-49
2022/10/08 06:10:00;;;;;;;13.73;6.90;;;12.50;99.90;;;;;;5031585;28;20433;-49
2022/10/08 06:12:26;;;;;;;12.33;8.20;;;11.90;99.90;;;;;;5031829;28;20517;-49
2022/10/08 06:14:53;;;;;;;13.57;7.30;;;11.50;99.90;;;;;;5031511;28;20433;-49
2022/10/08 06:17:21;;;;;;;7.83;6.70;;;12.60;99.90;;;;;;5031867;28;20443;-50
2022/10/08 06:19:47;;;;;;;13.63;7.50;;;11.90;99.90;;;;;;5031366;28;20436;-50
2022/10/08 06:22:14;;;;;;;11.60;7.30;;;11.80;99.90;;;;;;5013629;28;20503;-50
2022/10/08 06:24:41;;;;;;;8.07;5.63;;;12.60;99.90;;;;;;5031655;28;20436;-49
2022/10/08 06:27:08;;;;;;;12.50;6.90;;;12.30;99.90;;;;;;5031521;28;20901;-50
2022/10/08 06:29:35;;;;;;;9.67;6.10;;;12.00;99.90;;;;;;5031099;28;20479;-47
2022/10/08 06:32:02;;;;;;;12.80;6.03;;;12.60;99.90;;;;;;5031308;28;20469;-49
2022/10/08 06:34:28;;;;;;;13.57;7.50;;;11.60;99.90;;;;;;5031356;28;20559;-49
2022/10/08 06:36:55;;;;;;;8.00;6.40;;;12.20;99.90;;;;;;5031451;28;20441;-49
2022/10/08 06:39:21;;;;;;;11.07;6.17;;;12.50;99.90;;;;;;5031069;28;20452;-47
2022/10/08 06:41:48;;;;;;;10.23;7.33;;;12.10;99.90;;;;;;5031242;28;20484;-48
2022/10/08 06:44:17;;;;;;;12.60;7.37;;;12.10;99.90;;;;;;5031241;28;20943;-49
2022/10/08 06:46:44;;;;;;;10.77;6.97;;;12.20;99.90;;;;;;5031215;28;20783;-49
2022/10/08 06:49:12;;;;;;;9.87;6.00;;;12.10;99.90;;;;;;5030892;28;20481;-49
2022/10/08 06:51:39;;;;;;;9.37;5.80;;;12.20;99.90;;;;;;5013387;28;20440;-48
2022/10/08 06:54:06;;;;;;;11.93;6.63;;;12.00;99.90;;;;;;5031267;28;20928;-49
2022/10/08 06:56:34;;;;;;;12.23;6.83;;;12.20;99.90;;;;;;5031119;28;20441;-49
2022/10/08 06:59:01;;;;;;;15.50;7.33;;;12.20;99.90;;;;;;5031024;28;20471;-48
2022/10/08 07:01:29;;;;;;;11.63;6.00;;;12.70;99.90;;;;;;5030988;28;20435;-49
2022/10/08 07:03:57;;;;;;;7.73;6.23;;;12.60;99.90;;;;;;5031315;28;20774;-49
2022/10/08 07:06:25;;;;;;;14.97;7.10;;;12.50;99.90;;;;;;5030699;28;20440;-49
2022/10/08 07:08:53;;;;;;;9.03;6.90;;;13.00;99.90;;;;;;5030466;28;20486;-49
2022/10/08 07:11:20;;;;;;;16.80;6.90;;;12.10;99.90;;;;;;5031187;28;20429;-48
2022/10/08 07:13:46;;;;;;;18.73;7.90;;;12.90;99.90;;;;;;5030947;28;20974;-49
2022/10/08 07:16:16;;;;;;;14.43;6.67;;;12.20;99.90;;;;;;5031205;28;20456;-49
2022/10/08 07:18:45;;;;;;;10.30;7.93;;;12.60;99.90;;;;;;5030094;28;20429;-49
2022/10/08 07:21:14;;;;;;;12.10;6.37;;;12.60;99.90;;;;;;5031588;28;20780;-49
2022/10/08 07:23:41;;;;;;;12.80;7.07;;;12.90;99.90;;;;;;5030606;28;20928;-49
2022/10/08 07:26:11;;;;;;;10.27;6.77;;;12.40;99.90;;;;;;5030729;28;20447;-50
2022/10/08 07:28:40;;;;;;;11.33;7.87;;;12.80;99.90;;;;;;5030480;28;20475;-49
2022/10/08 07:31:09;;;;;;;17.07;8.53;;;12.60;99.90;;;;;;5030948;28;20434;-49
2022/10/08 07:33:36;;;;;;;10.60;5.97;;;12.70;99.90;;;;;;5030220;28;20532;-49
2022/10/08 07:36:08;;;;;;;10.63;6.97;;;12.90;99.90;;;;;;5030681;28;20429;-49
2022/10/08 07:38:35;;;;;;;10.03;6.70;;;12.90;99.90;;;;;;5030470;28;20448;-49
2022/10/08 07:41:01;;;;;;;13.40;6.80;;;13.10;99.90;;;;;;5030656;28;20444;-50
2022/10/08 07:43:28;;;;;;;10.83;6.47;;;13.20;99.90;;;;;;5030743;28;20894;-51
2022/10/08 07:45:55;;;;;;;10.03;6.30;;;12.90;99.90;;;;;;5031177;28;20437;-49
2022/10/08 07:48:21;;;;;;;12.27;6.30;;;13.40;99.90;;;;;;5034086;28;20481;-49
2022/10/08 07:50:48;;;;;;;11.27;6.63;;;12.60;99.90;;;;;;5034178;28;20494;-49
2022/10/08 07:53:16;;;;;;;12.60;5.70;;;13.00;99.90;;;;;;5034337;28;20523;-49
2022/10/08 07:55:43;;;;;;;13.80;7.07;;;12.60;99.90;;;;;;5034262;28;20490;-50
2022/10/08 07:58:09;;;;;;;16.23;6.90;;;13.40;99.90;;;;;;5033934;28;20434;-49
2022/10/08 08:00:38;;;;;;;11.47;5.70;;;13.20;99.90;;;;;;5033987;28;20432;-49
2022/10/08 08:03:05;;;;;;;11.53;5.70;;;13.20;99.90;;;;;;5034154;28;20490;-50
2022/10/08 08:05:34;;;;;;;10.57;5.53;;;13.40;99.90;;;;;;5034624;28;20855;-50
2022/10/08 08:08:01;;;;;;;12.37;5.37;;;13.20;99.90;;;;;;5034106;28;20897;-50
2022/10/08 08:10:29;;;;;;;17.20;5.70;;;13.00;99.90;;;;;;5034002;28;20437;-50
2022/10/08 08:12:55;;;;;;;12.50;4.70;;;13.90;99.90;;;;;;5033884;28;20433;-50
2022/10/08 08:15:22;;;;;;;7.40;4.40;;;13.40;99.90;;;;;;5033757;28;20775;-48
2022/10/08 08:17:48;;;;;;;12.83;5.57;;;13.30;99.90;;;;;;5034253;28;20435;-49
2022/10/08 08:20:15;;;;;;;8.27;5.20;;;13.30;99.90;;;;;;5033617;28;20486;-49
2022/10/08 08:22:42;;;;;;;7.73;3.80;;;13.90;99.90;;;;;;5016127;28;20505;-49
2022/10/08 08:25:09;;;;;;;12.77;5.03;;;13.70;99.90;;;;;;5033701;28;20438;-49
2022/10/08 08:27:37;;;;;;;15.50;4.23;;;13.70;99.90;;;;;;5033685;28;20443;-49
2022/10/08 08:30:04;;;;;;;12.93;4.17;;;14.10;99.90;;;;;;5033416;28;20510;-49
2022/10/08 08:32:31;;;;;;;10.17;4.27;;;14.40;99.90;;;;;;5033307;28;20470;-49
2022/10/08 08:34:58;;;;;;;13.97;3.97;;;13.80;99.90;;;;;;5033437;28;20432;-49
2022/10/08 08:37:24;;;;;;;8.60;4.87;;;13.90;99.90;;;;;;5033321;28;20440;-49
2022/10/08 08:39:51;;;;;;;8.33;3.50;;;14.00;99.90;;;;;;5033498;28;20435;-48
2022/10/08 08:42:46;;;;;;;9.00;4.00;;;14.10;99.90;;;;;;5033596;28;20451;-51
2022/10/08 08:45:24;;;;;;;10.43;4.10;;;14.20;99.90;;;;;;5033308;28;20872;-49
2022/10/08 08:48:04;;;;;;;10.20;3.47;;;14.30;99.90;;;;;;5033290;28;20435;-49
2022/10/08 08:50:35;;;;;;;6.40;4.13;;;14.30;99.90;;;;;;5033036;28;20461;-49
2022/10/08 08:53:03;;;;;;;14.53;6.00;;;14.40;99.90;;;;;;5033209;28;20807;-49
2022/10/08 08:55:35;;;;;;;13.90;6.20;;;14.50;99.90;;;;;;5033200;28;20434;-52
2022/10/08 08:58:12;;;;;;;11.23;5.17;;;14.60;99.90;;;;;;5032908;28;20854;-50
2022/10/08 09:00:41;;;;;;;11.40;4.53;;;14.80;99.90;;;;;;5032958;28;20950;-50
2022/10/08 09:03:16;;;;;;;11.00;4.67;;;14.60;99.90;;;;;;5033447;28;20833;-50
2022/10/08 09:05:46;;;;;;;16.03;4.77;;;14.90;99.90;;;;;;5033172;28;20900;-50
2022/10/08 09:08:17;;;;;;;12.40;4.33;;;14.70;99.90;;;;;;5033211;28;20431;-49
2022/10/08 09:10:48;;;;;;;19.07;4.90;;;14.70;99.90;;;;;;5032681;28;20798;-49
2022/10/08 09:13:19;;;;;;;15.80;5.40;;;14.90;99.90;;;;;;5032993;28;20455;-50
2022/10/08 09:15:46;;;;;;;15.90;5.53;;;14.80;99.90;;;;;;5032935;28;20614;-51
2022/10/08 09:18:15;;;;;;;10.57;4.87;;;14.90;99.90;;;;;;5032939;28;20444;-50
2022/10/08 09:20:42;;;;;;;11.37;5.73;;;15.30;99.90;;;;;;5032749;28;20800;-50
2022/10/08 09:23:14;;;;;;;10.80;4.53;;;15.30;99.90;;;;;;5032703;28;20465;-50
2022/10/08 09:25:42;;;;;;;15.93;5.70;;;15.20;99.90;;;;;;5033044;28;20509;-48
2022/10/08 09:28:09;;;;;;;10.30;4.67;;;15.20;99.90;;;;;;5032654;28;20444;-50
2022/10/08 09:30:39;;;;;;;10.50;4.70;;;15.40;99.90;;;;;;5031593;28;20603;-51
2022/10/08 09:33:28;;;;;;;11.53;5.60;;;15.50;99.90;;;;;;5032181;28;20810;-49
2022/10/08 09:35:55;;;;;;;18.40;5.40;;;15.80;99.90;;;;;;5032350;28;20979;-49
2022/10/08 09:38:23;;;;;;;11.37;5.73;;;15.80;99.90;;;;;;5032119;28;20831;-48
2022/10/08 09:41:01;;;;;;;10.60;5.97;;;16.00;99.90;;;;;;5031996;28;20476;-50
2022/10/08 09:43:28;;;;;;;8.37;4.03;;;16.10;99.90;;;;;;5014125;28;20474;-48
2022/10/08 09:45:57;;;;;;;11.57;5.47;;;16.20;99.90;;;;;;5032035;28;20436;-49
2022/10/08 09:48:26;;;;;;;13.17;6.50;;;16.20;99.90;;;;;;5013786;28;20450;-48
2022/10/08 09:50:59;;;;;;;10.53;5.27;;;16.30;99.90;;;;;;5031853;28;20932;-49
2022/10/08 09:53:31;;;;;;;14.33;6.67;;;16.10;99.90;;;;;;5031796;28;20468;-49
2022/10/08 09:56:00;;;;;;;16.30;5.70;;;16.50;99.90;;;;;;5031956;28;20523;-49
2022/10/08 09:58:30;;;;;;;14.57;5.60;;;16.70;99.90;;;;;;5031487;28;20948;-49
2022/10/08 10:01:02;;;;;;;10.20;5.43;;;16.70;99.90;;;;;;5013876;28;20454;-49
2022/10/08 10:03:30;;;;;;;10.10;5.00;;;17.00;99.90;;;;;;5031430;28;20460;-49
2022/10/08 10:05:58;;;;;;;7.73;4.93;;;16.70;99.90;;;;;;5031797;28;20790;-49
2022/10/08 10:08:47;;;;;;;14.47;7.40;;;17.10;99.90;;;;;;5031209;28;20474;-48
2022/10/08 10:11:20;;;;;;;14.50;5.57;;;16.90;99.90;;;;;;5031802;28;20437;-49
2022/10/08 10:13:48;;;;;;;17.33;5.40;;;16.90;99.90;;;;;;5013681;28;20476;-50
2022/10/08 10:16:20;;;;;;;10.20;4.33;;;17.00;99.90;;;;;;5031447;28;20448;-50
2022/10/08 10:18:54;;;;;;;12.23;5.17;;;17.00;99.90;;;;;;5031298;28;20437;-50
2022/10/08 10:21:27;;;;;;;8.53;4.50;;;17.10;99.90;;;;;;5031618;28;20442;-51
2022/10/08 10:24:05;;;;;;;14.57;4.70;;;17.10;99.90;;;;;;5031274;28;20873;-49
2022/10/08 10:26:36;;;;;;;9.73;4.20;;;17.40;99.90;;;;;;5031600;28;20857;-50
2022/10/08 10:29:09;;;;;;;7.63;4.50;;;17.20;99.90;;;;;;5030681;28;20454;-49
2022/10/08 10:31:41;;;;;;;9.93;4.27;;;17.20;99.90;;;;;;5031119;28;20440;-49
2022/10/08 10:34:13;;;;;;;9.90;4.20;;;17.30;99.90;;;;;;5032224;28;20436;-46
2022/10/08 10:36:45;;;;;;;13.80;4.80;;;17.60;99.90;;;;;;5031474;28;20776;-48
2022/10/08 10:39:23;;;;;;;9.70;5.13;;;17.20;99.90;;;;;;5030999;28;20440;-48
2022/10/08 10:41:57;;;;;;;15.53;4.80;;;17.20;99.90;;;;;;5031152;28;20442;-46
2022/10/08 10:44:26;;;;;;;13.13;4.70;;;17.20;99.90;;;;;;5031359;28;20433;-47
2022/10/08 10:46:57;;;;;;;13.50;4.20;;;17.00;99.90;;;;;;5031261;28;20433;-46
2022/10/08 10:49:29;;;;;;;5.90;3.40;;;17.10;99.90;;;;;;5030618;28;20853;-46
2022/10/08 10:52:03;;;;;;;10.10;4.53;;;17.50;99.90;;;;;;5031516;28;20458;-48
2022/10/08 10:54:51;;;;;;;10.73;4.17;;;17.40;99.90;;;;;;5031584;28;20441;-46
2022/10/08 10:57:32;;;;;;;13.00;4.70;;;17.40;99.90;;;;;;5030821;28;20431;-48
2022/10/08 11:00:05;;;;;;;13.50;4.67;;;17.40;99.90;;;;;;5030704;28;20444;-47
2022/10/08 11:02:42;;;;;;;12.40;4.93;;;17.30;99.90;;;;;;5030953;28;20453;-49
2022/10/08 11:05:16;;;;;;;12.27;5.20;;;17.30;99.90;;;;;;5030899;28;20787;-47
2022/10/08 11:08:18;;;;;;;10.83;4.80;;;17.20;99.90;;;;;;5030687;28;20433;-47
2022/10/08 11:10:59;;;;;;;17.37;5.80;;;17.30;99.90;;;;;;5030527;28;20495;-46
2022/10/08 11:13:36;;;;;;;13.23;4.30;;;17.20;99.90;;;;;;5013166;28;20489;-47
2022/10/08 11:16:17;;;;;;;16.03;5.10;;;17.00;99.90;;;;;;5030909;28;20812;-47
2022/10/08 11:18:51;;;;;;;9.20;4.20;;;17.00;99.90;;;;;;5030157;28;20781;-47
2022/10/08 11:21:34;;;;;;;8.70;4.10;;;16.90;99.90;;;;;;5033686;28;20438;-47
2022/10/08 11:24:20;;;;;;;11.67;4.67;;;16.90;99.90;;;;;;5035064;28;20433;-47
2022/10/08 11:26:55;;;;;;;10.67;4.20;;;16.90;99.90;;;;;;5034821;28;20449;-47
2022/10/08 11:29:28;;;;;;;14.87;4.70;;;16.70;99.90;;;;;;5034270;28;20487;-46
2022/10/08 11:31:55;;;;;;;12.57;5.17;;;16.70;99.90;;;;;;5034803;28;20840;-49
2022/10/08 11:34:27;;;;;;;12.67;4.20;;;16.10;99.90;;;;;;5034733;28;20490;-46
2022/10/08 11:37:07;;;;;;;12.67;4.50;;;16.60;99.90;;;;;;5034512;28;20449;-47
2022/10/08 11:39:43;;;;;;;13.10;5.20;;;16.70;99.90;;;;;;5034571;28;20428;-47
2022/10/08 11:42:16;;;;;;;9.13;5.00;;;16.30;99.90;;;;;;5034839;28;20449;-46
2022/10/08 11:44:43;;;;;;;10.50;5.13;;;16.80;99.90;;;;;;5034567;28;20922;-46
2022/10/08 11:47:34;;;;;;;15.43;6.50;;;16.90;99.90;;;;;;5035094;28;20446;-47
2022/10/08 11:50:05;;;;;;;16.30;5.87;;;16.60;99.90;;;;;;5034145;28;20479;-50
2022/10/08 11:52:34;;;;;;;13.70;6.97;;;16.70;99.90;;;;;;5034704;28;20510;-48
2022/10/08 11:55:01;;;;;;;14.23;6.60;;;16.70;99.90;;;;;;5035003;28;20439;-47
2022/10/08 11:57:33;;;;;;;10.80;6.77;;;16.70;99.90;;;;;;5035044;28;20534;-47
2022/10/08 12:00:02;;;;;;;12.43;6.30;;;16.70;99.90;;;;;;5034543;28;20494;-46
2022/10/08 12:02:35;;;;;;;10.07;5.80;;;16.90;99.90;;;;;;5033841;28;20463;-47
2022/10/08 12:05:26;;;;;;;19.50;6.83;;;16.80;99.90;;;;;;5033866;28;20467;-49
2022/10/08 12:07:55;;;;;;;11.30;6.00;;;16.90;99.90;;;;;;5033701;28;20440;-46
2022/10/08 12:10:32;;;;;;;9.57;5.40;;;17.40;99.90;;;;;;5033529;28;20471;-47
2022/10/08 12:13:24;;;;;;;8.40;5.47;;;17.30;99.90;;;;;;5015669;28;20531;-46
2022/10/08 12:15:55;;;;;;;11.90;6.20;;;17.40;99.90;;;;;;5033881;28;20463;-48
2022/10/08 12:18:52;;;;;;;12.30;6.33;;;16.50;99.90;;;;;;5033642;28;20795;-48
2022/10/08 12:21:50;;;;;;;15.87;6.37;;;16.90;99.90;;;;;;5033732;28;20465;-47
2022/10/08 12:24:55;;;;;;;19.77;6.00;;;16.60;99.90;;;;;;5033655;28;20962;-48
2022/10/08 12:27:27;;;;;;;15.77;6.13;;;17.00;99.90;;;;;;5033490;28;20538;-47
2022/10/08 12:29:55;;;;;;;10.93;6.00;;;17.10;99.90;;;;;;5032957;28;20480;-47
2022/10/08 12:32:24;;;;;;;12.07;6.50;;;17.40;99.90;;;;;;5032455;28;20465;-47
2022/10/08 12:34:51;;;;;;;15.40;7.20;;;17.20;99.90;;;;;;5033424;28;20449;-49
2022/10/08 12:37:35;;;;;;;9.70;5.60;;;16.70;99.90;;;;;;5033708;28;20444;-47
2022/10/08 12:40:11;;;;;;;18.17;6.63;;;17.30;99.90;;;;;;5032621;28;20768;-47
2022/10/08 12:42:40;;;;;;;5.20;4.63;;;17.30;99.90;;;;;;5033099;28;20465;-48
2022/10/08 12:45:18;;;;;;;18.37;6.03;;;17.20;99.90;;;;;;5033228;28;20437;-47
2022/10/08 12:47:49;;;;;;;8.90;5.17;;;17.40;99.90;;;;;;5033134;28;20903;-46
2022/10/08 12:50:32;;;;;;;13.63;6.60;;;17.30;99.90;;;;;;5032778;28;20934;-46
2022/10/08 12:53:01;;;;;;;13.93;5.70;;;16.90;99.90;;;;;;5032861;28;20457;-49
2022/10/08 12:55:30;;;;;;;8.40;6.20;;;17.30;99.90;;;;;;5032765;28;20457;-47
2022/10/08 12:57:57;;;;;;;9.40;5.60;;;17.10;99.90;;;;;;5032694;28;20732;-48